Time;durP1;ratioP1;P1;durP2;ratioP2;P2;SDS_P1;SDS_P2;PMS_P1;PMS_P2;Temp;Humidity;BMP_temperature;BMP_pressure;BME280_temperature;BME280_humidity;BME280_pressure;Samples;Min_cycle;Max_cycle;Signal;HPM_P1;HPM_P2
2022/06/12 00:00:16;;;;;;;8.63;1.85;;;16.70;99.90;;;;;;5054637;28;20074;-67
2022/06/12 00:02:43;;;;;;;7.13;2.20;;;16.60;99.90;;;;;;5054291;28;20095;-67
2022/06/12 00:05:14;;;;;;;8.68;2.08;;;16.50;99.90;;;;;;5054317;28;20075;-68
2022/06/12 00:07:41;;;;;;;11.60;2.35;;;16.40;99.90;;;;;;5054201;28;20358;-67
2022/06/12 00:10:08;;;;;;;15.80;2.53;;;16.50;99.90;;;;;;5054210;28;20045;-68
2022/06/12 00:12:35;;;;;;;17.30;2.42;;;16.50;99.90;;;;;;5054361;28;20100;-67
2022/06/12 00:15:00;;;;;;;9.80;2.13;;;16.50;99.90;;;;;;5054111;28;20040;-69
2022/06/12 00:17:26;;;;;;;6.45;1.75;;;16.80;99.90;;;;;;5054097;28;20029;-68
2022/06/12 00:19:53;;;;;;;10.50;2.28;;;16.60;99.90;;;;;;5053956;28;20029;-68
2022/06/12 00:22:19;;;;;;;6.70;1.90;;;16.50;99.90;;;;;;5053831;28;20031;-69
2022/06/12 00:24:45;;;;;;;11.95;2.85;;;16.10;99.90;;;;;;5054087;28;20029;-68
2022/06/12 00:27:11;;;;;;;8.13;2.17;;;16.20;99.90;;;;;;5054041;28;20132;-67
2022/06/12 00:29:38;;;;;;;4.57;1.70;;;16.30;99.90;;;;;;5052479;28;20037;-68
2022/06/12 00:32:12;;;;;;;7.68;2.00;;;15.70;99.90;;;;;;5053650;28;20119;-69
2022/06/12 00:34:44;;;;;;;9.95;2.13;;;15.70;99.90;;;;;;5036627;28;20404;-67
2022/06/12 00:37:11;;;;;;;8.38;2.28;;;15.70;99.90;;;;;;5053136;28;20498;-67
2022/06/12 00:39:39;;;;;;;8.70;2.20;;;15.80;99.90;;;;;;5053766;28;20075;-68
2022/06/12 00:42:08;;;;;;;12.48;2.65;;;15.70;99.90;;;;;;5054069;28;20021;-67
2022/06/12 00:44:40;;;;;;;9.77;1.92;;;16.00;99.90;;;;;;5053722;28;20025;-67
2022/06/12 00:47:11;;;;;;;9.05;1.52;;;16.20;99.90;;;;;;5053441;28;20469;-68
2022/06/12 00:49:42;;;;;;;7.15;1.90;;;16.20;99.90;;;;;;5053271;28;20036;-68
2022/06/12 00:52:17;;;;;;;12.30;2.40;;;16.00;99.90;;;;;;5053217;28;20060;-69
2022/06/12 00:54:47;;;;;;;8.73;2.10;;;16.10;99.90;;;;;;5053390;28;20048;-67
2022/06/12 00:57:14;;;;;;;16.17;3.35;;;16.00;99.90;;;;;;5051851;28;20037;-67
2022/06/12 00:59:52;;;;;;;11.15;2.40;;;15.90;99.90;;;;;;5053411;28;20079;-68
2022/06/12 01:02:23;;;;;;;12.43;2.83;;;15.90;99.90;;;;;;5053354;28;20068;-66
2022/06/12 01:07:37;;;;;;;11.23;2.30;;;15.70;99.90;;;;;;5052910;28;20025;-68
2022/06/12 01:10:07;;;;;;;8.30;2.28;;;15.40;99.90;;;;;;5053079;28;20040;-67
2022/06/12 01:12:43;;;;;;;6.13;1.98;;;15.50;99.90;;;;;;5053054;28;20497;-68
2022/06/12 01:15:16;;;;;;;9.25;2.65;;;15.60;99.90;;;;;;5053227;28;20037;-69
2022/06/12 01:17:44;;;;;;;10.13;2.65;;;15.60;99.90;;;;;;5051609;28;20032;-67
2022/06/12 01:20:15;;;;;;;17.13;2.33;;;15.60;99.90;;;;;;5052721;28;20028;-69
2022/06/12 01:23:02;;;;;;;16.47;2.17;;;15.60;99.90;;;;;;5052936;28;20059;-67
2022/06/12 01:25:42;;;;;;;8.65;2.05;;;15.60;99.90;;;;;;5053285;28;20176;-68
2022/06/12 01:28:24;;;;;;;8.50;2.17;;;15.70;99.90;;;;;;5040282;28;20481;-68
2022/06/12 01:31:02;;;;;;;7.07;2.15;;;15.80;99.90;;;;;;5052923;28;20082;-67
2022/06/12 01:33:36;;;;;;;16.90;2.65;;;15.50;99.90;;;;;;5052630;28;20095;-67
2022/06/12 01:36:09;;;;;;;12.80;3.80;;;15.20;99.90;;;;;;5052548;28;20029;-67
2022/06/12 01:38:38;;;;;;;9.88;2.40;;;15.30;99.90;;;;;;5057751;28;20028;-69
2022/06/12 01:41:43;;;;;;;8.77;2.28;;;15.50;99.90;;;;;;5056912;28;20032;-68
2022/06/12 01:44:17;;;;;;;10.45;2.45;;;15.40;99.90;;;;;;5030977;28;20095;-67
2022/06/12 01:46:52;;;;;;;9.15;2.13;;;15.40;99.90;;;;;;5050805;28;20439;-68
2022/06/12 01:49:36;;;;;;;11.18;2.55;;;15.40;99.90;;;;;;5053782;28;20469;-69
2022/06/12 01:52:14;;;;;;;13.23;2.42;;;15.30;99.90;;;;;;5056782;28;20060;-67
2022/06/12 01:55:05;;;;;;;12.43;2.15;;;15.50;99.90;;;;;;5056917;28;20051;-67
2022/06/12 01:57:51;;;;;;;14.57;2.35;;;15.60;99.90;;;;;;5056720;28;20064;-67
2022/06/12 02:00:21;;;;;;;13.60;2.95;;;15.20;99.90;;;;;;5057406;28;20056;-67
2022/06/12 02:02:46;;;;;;;11.82;2.42;;;15.50;99.90;;;;;;5056541;28;20028;-68
2022/06/12 02:05:48;;;;;;;8.10;2.08;;;15.40;99.90;;;;;;5056238;28;20017;-68
2022/06/12 02:08:20;;;;;;;11.32;2.40;;;15.50;99.90;;;;;;5056551;28;20073;-67
2022/06/12 02:10:52;;;;;;;13.43;2.50;;;15.30;99.90;;;;;;5055575;28;20110;-66
2022/06/12 02:13:29;;;;;;;15.52;2.92;;;15.20;99.90;;;;;;5056401;28;20083;-69
2022/06/12 02:16:03;;;;;;;12.65;2.72;;;15.20;99.90;;;;;;5056556;28;20086;-67
2022/06/12 02:18:37;;;;;;;12.30;2.72;;;15.30;99.90;;;;;;5055988;28;20385;-67
2022/06/12 02:21:26;;;;;;;11.73;3.05;;;15.10;99.90;;;;;;5056402;28;20033;-67
2022/06/12 02:24:06;;;;;;;11.88;3.20;;;15.20;99.90;;;;;;5055164;28;20025;-67
2022/06/12 02:27:01;;;;;;;10.00;2.30;;;15.00;99.90;;;;;;5056221;28;20025;-66
2022/06/12 02:29:36;;;;;;;13.77;2.60;;;14.90;99.90;;;;;;5053690;28;20048;-68
2022/06/12 02:32:13;;;;;;;17.40;2.67;;;14.90;99.90;;;;;;5055821;28;20028;-66
2022/06/12 02:34:44;;;;;;;13.18;4.72;;;14.80;99.90;;;;;;5055798;28;20457;-67
2022/06/12 02:37:22;;;;;;;10.13;2.40;;;14.30;99.90;;;;;;5056129;28;20033;-68
2022/06/12 02:39:55;;;;;;;19.20;2.97;;;14.10;99.90;;;;;;5055821;28;20063;-68
2022/06/12 02:42:37;;;;;;;7.25;2.20;;;13.90;99.90;;;;;;5056165;28;20036;-69
2022/06/12 02:45:17;;;;;;;9.40;2.78;;;14.20;99.90;;;;;;5056297;28;20469;-68
2022/06/12 02:47:45;;;;;;;12.68;3.00;;;14.20;99.90;;;;;;5055548;28;20029;-67
2022/06/12 02:50:13;;;;;;;14.23;3.08;;;14.00;99.90;;;;;;5055819;28;20385;-67
2022/06/12 02:52:54;;;;;;;15.90;3.28;;;13.90;99.90;;;;;;5055661;28;20120;-67
2022/06/12 02:55:22;;;;;;;12.30;3.22;;;13.90;99.90;;;;;;5055729;28;20076;-66
2022/06/12 02:58:04;;;;;;;10.85;2.80;;;14.10;99.90;;;;;;5055555;28;20033;-68
2022/06/12 03:00:34;;;;;;;9.63;2.50;;;14.20;99.90;;;;;;5055538;28;20040;-67
2022/06/12 03:03:36;;;;;;;13.23;2.80;;;14.10;99.90;;;;;;5055227;28;20079;-68
2022/06/12 03:06:03;;;;;;;9.20;2.35;;;14.10;99.90;;;;;;5054289;28;20397;-66
2022/06/12 03:08:34;;;;;;;10.57;2.95;;;14.20;99.90;;;;;;5055307;28;20032;-67
2022/06/12 03:11:09;;;;;;;14.80;3.38;;;14.30;99.90;;;;;;5056474;28;20171;-67
2022/06/12 03:13:36;;;;;;;8.30;2.70;;;14.20;99.90;;;;;;5054082;28;20466;-68
2022/06/12 03:16:08;;;;;;;21.10;2.85;;;14.20;99.90;;;;;;5055149;28;20112;-66
2022/06/12 03:18:38;;;;;;;14.88;2.90;;;14.00;99.90;;;;;;5055351;28;20036;-68
2022/06/12 03:21:22;;;;;;;11.68;2.78;;;13.80;99.90;;;;;;5055648;28;20039;-66
2022/06/12 03:24:03;;;;;;;11.20;3.42;;;14.00;99.90;;;;;;5055540;28;20072;-68
2022/06/12 03:26:32;;;;;;;17.05;3.75;;;14.10;99.90;;;;;;5055259;28;20024;-66
2022/06/12 03:29:24;;;;;;;19.77;2.70;;;14.10;99.90;;;;;;5055013;28;20017;-67
2022/06/12 03:32:19;;;;;;;17.05;3.40;;;14.00;99.90;;;;;;5053351;28;20128;-67
2022/06/12 03:34:59;;;;;;;14.32;3.10;;;13.90;99.90;;;;;;5038802;28;20041;-66
2022/06/12 03:37:47;;;;;;;14.57;3.10;;;13.80;99.90;;;;;;5055106;28;20035;-69
2022/06/12 03:40:16;;;;;;;16.52;2.83;;;13.50;99.90;;;;;;5054887;28;20033;-68
2022/06/12 03:42:50;;;;;;;17.52;3.45;;;13.50;99.90;;;;;;5054946;28;20131;-67
2022/06/12 03:45:25;;;;;;;15.60;3.17;;;13.50;99.90;;;;;;5054435;28;20124;-67
2022/06/12 03:48:09;;;;;;;20.48;3.55;;;13.40;99.90;;;;;;5054787;28;20041;-67
2022/06/12 03:50:46;;;;;;;16.67;3.67;;;13.70;99.90;;;;;;5054446;28;20045;-68
2022/06/12 03:53:45;;;;;;;13.77;3.00;;;13.60;99.90;;;;;;5054905;28;20108;-67
2022/06/12 03:59:10;;;;;;;15.80;3.47;;;13.70;99.90;;;;;;5054385;28;20445;-66
2022/06/12 04:01:37;;;;;;;19.92;3.42;;;13.50;99.90;;;;;;5054375;28;20112;-66
2022/06/12 04:04:04;;;;;;;11.93;3.55;;;13.40;99.90;;;;;;5054325;28;20021;-67
2022/06/12 04:06:31;;;;;;;12.77;3.47;;;13.40;99.90;;;;;;5054357;28;20079;-66
2022/06/12 04:09:01;;;;;;;14.45;4.32;;;13.40;99.90;;;;;;5054254;28;20033;-68
2022/06/12 04:11:30;;;;;;;18.48;3.90;;;13.40;99.90;;;;;;5054061;28;20477;-68
2022/06/12 04:13:58;;;;;;;15.75;3.92;;;13.60;99.90;;;;;;5053898;28;20074;-68
2022/06/12 04:16:35;;;;;;;17.40;3.92;;;13.70;99.90;;;;;;5054199;28;20033;-66
2022/06/12 04:19:05;;;;;;;16.35;3.75;;;13.80;99.90;;;;;;5054283;28;20033;-68
2022/06/12 04:21:42;;;;;;;25.13;3.95;;;13.90;99.90;;;;;;5053709;28;20037;-69
2022/06/12 04:24:16;;;;;;;14.23;3.55;;;13.90;99.90;;;;;;5054090;28;20420;-67
2022/06/12 04:27:04;;;;;;;16.75;4.80;;;13.80;99.90;;;;;;5053817;28;20516;-66
2022/06/12 04:29:35;;;;;;;12.90;3.10;;;13.80;99.90;;;;;;5054788;28;20061;-68
2022/06/12 04:32:04;;;;;;;;;;;13.60;99.90;;;;;;5053362;28;20039;-67
2022/06/12 04:34:33;;;;;;;13.70;3.55;;;13.50;99.90;;;;;;5053767;28;19912;-68
2022/06/12 04:37:03;;;;;;;16.50;3.40;;;13.50;99.90;;;;;;5053872;28;20021;-66
2022/06/12 04:39:33;;;;;;;18.42;3.67;;;13.60;99.90;;;;;;5053804;28;20025;-66
2022/06/12 04:42:00;;;;;;;13.00;3.33;;;13.60;99.90;;;;;;5053521;28;20028;-67
2022/06/12 04:44:26;;;;;;;14.02;4.00;;;13.60;99.90;;;;;;5053818;28;20025;-67
2022/06/12 04:46:54;;;;;;;17.00;4.45;;;13.70;99.90;;;;;;5053411;28;20481;-67
2022/06/12 04:49:23;;;;;;;16.48;4.15;;;13.80;99.90;;;;;;5053925;28;20029;-67
2022/06/12 04:51:53;;;;;;;14.77;3.75;;;14.00;99.90;;;;;;5053164;28;20074;-68
2022/06/12 04:54:19;;;;;;;19.80;3.70;;;14.10;99.90;;;;;;5053941;28;20017;-66
2022/06/12 04:56:46;;;;;;;19.73;4.63;;;13.80;99.90;;;;;;5053462;28;20060;-68
2022/06/12 04:59:13;;;;;;;14.93;4.10;;;13.70;99.90;;;;;;5053039;28;20091;-67
2022/06/12 05:01:39;;;;;;;19.10;4.15;;;13.80;99.90;;;;;;5052098;28;20381;-67
2022/06/12 05:04:06;;;;;;;23.92;4.38;;;13.80;99.90;;;;;;5053514;28;20025;-68
2022/06/12 05:06:33;;;;;;;19.33;4.85;;;13.80;99.90;;;;;;5053064;28;20021;-67
2022/06/12 05:08:59;;;;;;;17.70;4.55;;;13.90;99.90;;;;;;5053322;28;20021;-67
2022/06/12 05:11:25;;;;;;;23.52;5.97;;;13.90;99.90;;;;;;5052977;28;20424;-68
2022/06/12 05:13:51;;;;;;;24.77;4.90;;;14.10;99.90;;;;;;5053493;28;20040;-68
2022/06/12 05:16:24;;;;;;;19.77;4.50;;;14.30;99.90;;;;;;5053119;28;20029;-68
2022/06/12 05:18:49;;;;;;;22.15;4.30;;;14.60;99.90;;;;;;5052992;28;20024;-68
2022/06/12 05:21:15;;;;;;;21.58;5.07;;;14.50;99.90;;;;;;5053080;28;20025;-68
2022/06/12 05:23:41;;;;;;;27.52;4.95;;;14.60;99.90;;;;;;5051078;28;20028;-68
2022/06/12 05:26:08;;;;;;;23.63;5.00;;;14.60;99.90;;;;;;5052845;28;20385;-66
2022/06/12 05:28:34;;;;;;;27.23;6.10;;;14.20;99.90;;;;;;5052860;28;20013;-67
2022/06/12 05:31:00;;;;;;;21.58;5.60;;;14.50;99.90;;;;;;5051808;28;20151;-68
2022/06/12 05:33:25;;;;;;;24.35;4.90;;;14.70;99.90;;;;;;5052846;28;20427;-68
2022/06/12 05:35:51;;;;;;;24.90;5.38;;;14.90;99.90;;;;;;5051601;28;20029;-66
2022/06/12 05:38:17;;;;;;;22.42;5.20;;;14.60;99.90;;;;;;5053069;28;20492;-66
2022/06/12 05:40:43;;;;;;;25.23;5.50;;;14.40;99.90;;;;;;5052703;28;20021;-68
2022/06/12 05:43:09;;;;;;;32.88;6.80;;;14.50;99.90;;;;;;5051600;28;20540;-68
2022/06/12 05:45:37;;;;;;;22.52;6.38;;;14.60;99.90;;;;;;5052764;28;20049;-67
2022/06/12 05:48:14;;;;;;;26.63;7.35;;;14.60;99.90;;;;;;5052795;28;20032;-67
2022/06/12 05:50:52;;;;;;;19.00;6.50;;;14.60;99.90;;;;;;5051919;28;20033;-68
2022/06/12 05:53:19;;;;;;;33.33;7.25;;;14.90;99.90;;;;;;5052831;28;20155;-66
2022/06/12 05:55:46;;;;;;;31.83;7.35;;;15.00;99.90;;;;;;5052330;28;20025;-68
2022/06/12 05:58:14;;;;;;;36.70;7.75;;;15.00;99.90;;;;;;5052727;28;20055;-68
2022/06/12 06:00:40;;;;;;;32.13;7.32;;;15.30;99.90;;;;;;5052737;28;20489;-68
2022/06/12 06:03:06;;;;;;;31.30;7.63;;;15.40;99.90;;;;;;5052204;28;20354;-68
2022/06/12 06:05:35;;;;;;;28.30;8.35;;;15.60;99.90;;;;;;5052518;28;20094;-67
2022/06/12 06:08:02;;;;;;;30.05;7.10;;;15.50;99.90;;;;;;5052442;28;20013;-66
2022/06/12 06:10:28;;;;;;;26.05;7.07;;;15.50;99.90;;;;;;5052252;28;20093;-67
2022/06/12 06:12:55;;;;;;;20.08;7.75;;;15.50;99.90;;;;;;5051810;28;20485;-68
2022/06/12 06:15:22;;;;;;;42.72;8.43;;;15.90;99.90;;;;;;5044910;28;20233;-67
2022/06/12 06:17:48;;;;;;;29.10;8.38;;;16.20;99.90;;;;;;5050687;28;20118;-68
2022/06/12 06:20:17;;;;;;;32.25;8.27;;;16.00;99.90;;;;;;5051445;28;20028;-67
2022/06/12 06:22:43;;;;;;;26.05;8.45;;;15.80;99.90;;;;;;5051010;28;20028;-70
2022/06/12 06:25:10;;;;;;;30.83;8.77;;;16.20;99.90;;;;;;5051089;28;20017;-68
2022/06/12 06:27:36;;;;;;;42.92;10.70;;;16.30;99.90;;;;;;5050449;28;20385;-66
2022/06/12 06:30:03;;;;;;;36.33;10.00;;;16.10;99.90;;;;;;5051289;28;20033;-66
2022/06/12 06:32:29;;;;;;;40.53;9.35;;;16.50;99.90;;;;;;5040687;28;20377;-67
2022/06/12 06:34:55;;;;;;;34.08;10.88;;;16.40;99.90;;;;;;5051228;28;20029;-67
2022/06/12 06:37:21;;;;;;;36.63;11.27;;;16.20;99.90;;;;;;5055241;28;20024;-66
2022/06/12 06:39:47;;;;;;;33.00;10.40;;;16.10;99.90;;;;;;5053565;28;20079;-68
2022/06/12 06:42:13;;;;;;;33.53;10.93;;;16.10;99.90;;;;;;5054946;28;20029;-66
2022/06/12 06:47:27;;;;;;;41.47;10.98;;;16.40;99.90;;;;;;5049081;28;20068;-66
2022/06/12 06:49:53;;;;;;;31.45;10.75;;;16.40;99.90;;;;;;5054941;28;20060;-68
2022/06/12 06:52:19;;;;;;;39.55;10.40;;;16.50;99.90;;;;;;5054577;28;20511;-67
2022/06/12 06:54:45;;;;;;;40.78;11.27;;;16.60;99.90;;;;;;5053604;28;20021;-68
2022/06/12 06:57:12;;;;;;;33.45;10.45;;;16.70;99.90;;;;;;5054804;28;20432;-67
2022/06/12 06:59:38;;;;;;;36.03;11.10;;;16.70;99.90;;;;;;5054613;28;20024;-69
2022/06/12 07:02:05;;;;;;;33.08;9.57;;;17.00;99.90;;;;;;5054769;28;20432;-67
2022/06/12 07:04:32;;;;;;;32.90;9.18;;;17.10;99.90;;;;;;5052454;28;20021;-66
2022/06/12 07:06:58;;;;;;;35.67;9.07;;;17.20;99.90;;;;;;5054787;28;20021;-69
2022/06/12 07:09:24;;;;;;;33.08;9.52;;;17.30;99.90;;;;;;5054067;28;20055;-68
2022/06/12 07:11:50;;;;;;;33.88;9.23;;;17.30;99.90;;;;;;5054503;28;20473;-67
2022/06/12 07:14:16;;;;;;;27.58;8.48;;;17.70;99.90;;;;;;5054314;28;20025;-68
2022/06/12 07:16:42;;;;;;;36.03;9.73;;;18.00;99.90;;;;;;5053284;28;20382;-67
2022/06/12 07:19:09;;;;;;;33.50;10.00;;;18.10;99.90;;;;;;5054259;28;20379;-67
2022/06/12 07:21:35;;;;;;;31.73;10.02;;;17.70;99.90;;;;;;5052701;28;20017;-68
2022/06/12 07:24:01;;;;;;;30.33;8.10;;;17.70;99.90;;;;;;5039392;28;20025;-68
2022/06/12 07:26:36;;;;;;;24.50;7.72;;;18.00;99.90;;;;;;5049594;28;20098;-69
2022/06/12 07:29:04;;;;;;;21.75;7.43;;;18.20;99.90;;;;;;5053698;28;20036;-67
2022/06/12 07:31:31;;;;;;;25.15;6.88;;;18.00;99.90;;;;;;5053989;28;20425;-69
2022/06/12 07:33:57;;;;;;;25.10;8.07;;;18.00;99.90;;;;;;5040937;28;20021;-69
2022/06/12 07:36:24;;;;;;;31.00;7.75;;;17.90;99.90;;;;;;5054240;28;20029;-68
2022/06/12 07:38:50;;;;;;;27.38;7.18;;;18.10;99.90;;;;;;5053316;28;20021;-68
2022/06/12 07:41:18;;;;;;;27.73;7.75;;;18.20;99.90;;;;;;5053810;28;20053;-67
2022/06/12 07:43:45;;;;;;;22.00;6.95;;;18.50;99.90;;;;;;5053592;28;20029;-69
2022/06/12 07:46:16;;;;;;;21.00;6.50;;;18.30;99.90;;;;;;5050730;28;20382;-68
2022/06/12 07:48:44;;;;;;;27.92;6.82;;;18.20;99.90;;;;;;5049495;28;20029;-68
2022/06/12 07:51:13;;;;;;;25.23;6.82;;;18.20;99.90;;;;;;5052075;28;20043;-67
2022/06/12 07:53:39;;;;;;;24.75;5.60;;;18.40;99.90;;;;;;5053373;28;20377;-68
2022/06/12 07:56:07;;;;;;;25.52;5.75;;;18.50;99.90;;;;;;5053853;28;20021;-69
2022/06/12 07:58:34;;;;;;;24.25;6.65;;;18.90;99.90;;;;;;5053782;28;20021;-67
2022/06/12 08:01:03;;;;;;;20.33;4.70;;;19.10;99.90;;;;;;5053461;28;20035;-69
2022/06/12 08:03:30;;;;;;;16.77;4.53;;;19.10;99.90;;;;;;5053765;28;20091;-68
2022/06/12 08:05:56;;;;;;;25.90;5.60;;;18.80;99.90;;;;;;5052844;28;20070;-67
2022/06/12 08:08:21;;;;;;;30.08;7.13;;;18.80;99.90;;;;;;5052378;28;20040;-67
2022/06/12 08:10:48;;;;;;;23.88;5.85;;;18.90;99.90;;;;;;5050665;28;20025;-68
2022/06/12 08:13:14;;;;;;;21.30;5.28;;;19.30;99.90;;;;;;5052877;28;20064;-69
2022/06/12 08:15:44;;;;;;;19.77;5.43;;;19.70;99.90;;;;;;5052713;28;20047;-69
2022/06/12 08:18:11;;;;;;;28.58;5.78;;;20.10;99.90;;;;;;5049849;28;20076;-68
2022/06/12 08:20:40;;;;;;;20.55;5.65;;;19.80;99.90;;;;;;5053634;28;20029;-69
2022/06/12 08:23:26;;;;;;;25.00;5.53;;;19.50;99.90;;;;;;5045815;28;20017;-68
2022/06/12 08:25:55;;;;;;;16.38;5.35;;;19.10;99.90;;;;;;5052802;28;20029;-68
2022/06/12 08:28:22;;;;;;;22.15;5.20;;;19.60;99.90;;;;;;5052846;28;20039;-68
2022/06/12 08:30:48;;;;;;;17.92;5.03;;;19.60;99.90;;;;;;5052713;28;20095;-68
2022/06/12 08:33:14;;;;;;;20.40;4.50;;;19.70;99.90;;;;;;5052772;28;20482;-69
2022/06/12 08:35:40;;;;;;;20.98;4.40;;;20.00;99.90;;;;;;5052661;28;20029;-68
2022/06/12 08:38:07;;;;;;;13.15;3.00;;;20.50;99.90;;;;;;5052501;28;20025;-68
2022/06/12 08:41:11;;;;;;;18.75;4.47;;;20.00;99.90;;;;;;5052687;28;20078;-68
2022/06/12 08:44:04;;;;;;;25.70;5.07;;;19.80;99.90;;;;;;5006672;28;20042;-69
2022/06/12 08:46:54;;;;;;;21.17;4.57;;;20.00;99.90;;;;;;5047263;28;20045;-68
2022/06/12 08:49:36;;;;;;;22.25;4.43;;;20.10;99.90;;;;;;5049879;28;20068;-69
2022/06/12 08:52:09;;;;;;;;;;;20.40;99.90;;;;;;5051963;28;20128;-67
2022/06/12 08:55:03;;;;;;;22.80;4.78;;;20.40;99.90;;;;;;5049411;28;19954;-67
2022/06/12 08:57:40;;;;;;;19.13;4.82;;;20.10;99.90;;;;;;5051782;28;20033;-69
2022/06/12 09:00:06;;;;;;;17.13;4.32;;;19.70;99.90;;;;;;5050600;28;20032;-68
2022/06/12 09:02:35;;;;;;;14.30;4.40;;;20.20;99.90;;;;;;5051672;28;20040;-68
2022/06/12 09:05:04;;;;;;;16.40;3.88;;;20.60;99.90;;;;;;5050261;28;20033;-69
2022/06/12 09:07:44;;;;;;;18.15;4.22;;;20.70;99.90;;;;;;5050452;28;20040;-69
2022/06/12 09:10:28;;;;;;;18.42;4.40;;;20.90;99.90;;;;;;5050994;28;20116;-69
2022/06/12 09:13:05;;;;;;;17.05;4.22;;;20.60;99.90;;;;;;5051361;28;20087;-68
2022/06/12 09:15:38;;;;;;;16.90;4.32;;;20.70;99.90;;;;;;5051487;28;20032;-68
2022/06/12 09:18:35;;;;;;;15.18;4.97;;;20.40;99.90;;;;;;5050435;28;20162;-69
2022/06/12 09:21:13;;;;;;;16.45;4.53;;;20.60;99.90;;;;;;5051617;28;20040;-68
2022/06/12 09:23:58;;;;;;;17.25;4.60;;;20.70;99.90;;;;;;5051100;28;20012;-69
2022/06/12 09:27:01;;;;;;;20.77;5.22;;;20.90;99.90;;;;;;5051724;28;20029;-67
2022/06/12 09:29:39;;;;;;;14.27;3.97;;;20.60;99.90;;;;;;4990443;28;20054;-68
2022/06/12 09:32:20;;;;;;;17.70;4.85;;;21.00;99.90;;;;;;5044665;28;20045;-69
2022/06/12 09:35:02;;;;;;;14.07;4.35;;;21.20;99.90;;;;;;5045380;28;20028;-69
2022/06/12 09:40:39;;;;;;;17.48;3.95;;;20.70;99.90;;;;;;5063409;28;20073;-68
2022/06/12 09:43:47;;;;;;;14.43;4.32;;;20.50;99.90;;;;;;5051222;28;20262;-68
2022/06/12 09:46:30;;;;;;;14.32;4.43;;;20.80;99.90;;;;;;5050551;28;20100;-68
2022/06/12 09:49:11;;;;;;;15.57;4.15;;;20.60;99.90;;;;;;5063398;28;20037;-69
2022/06/12 09:52:04;;;;;;;14.15;4.03;;;20.90;99.90;;;;;;5051496;28;20120;-68
2022/06/12 09:54:46;;;;;;;16.27;3.72;;;21.00;99.90;;;;;;5049792;28;20033;-68
2022/06/12 09:57:18;;;;;;;13.85;4.53;;;20.90;99.90;;;;;;5052000;28;20473;-69
2022/06/12 10:00:03;;;;;;;14.18;3.67;;;21.20;99.90;;;;;;5052384;28;20047;-68
2022/06/12 10:02:47;;;;;;;11.82;2.90;;;21.50;99.90;;;;;;5051741;28;20135;-68
2022/06/12 10:05:31;;;;;;;17.92;4.22;;;21.90;99.90;;;;;;5052226;28;20017;-68
2022/06/12 10:08:15;;;;;;;15.75;3.78;;;22.10;98.80;;;;;;5050872;28;20029;-68
2022/06/12 10:10:47;;;;;;;19.27;3.72;;;22.10;98.80;;;;;;5053718;28;20033;-68
2022/06/12 10:13:18;;;;;;;17.70;4.32;;;22.00;99.10;;;;;;5056072;28;20107;-69
2022/06/12 10:15:50;;;;;;;17.45;4.13;;;22.00;99.50;;;;;;5056328;28;20043;-68
2022/06/12 10:18:27;;;;;;;;;;;22.00;99.10;;;;;;5055665;28;20025;-67
2022/06/12 10:20:58;;;;;;;19.73;4.70;;;21.90;98.60;;;;;;5040520;28;20419;-75
2022/06/12 10:23:24;;;;;;;16.52;4.90;;;21.60;99.60;;;;;;5053399;28;20035;-68
2022/06/12 10:25:54;;;;;;;17.00;4.53;;;22.20;98.90;;;;;;5055061;28;20021;-67
2022/06/12 10:28:28;;;;;;;13.40;4.43;;;22.30;98.60;;;;;;5054734;28;20021;-69
2022/06/12 10:31:00;;;;;;;13.73;4.95;;;22.00;99.20;;;;;;5054615;28;20041;-69
2022/06/12 10:33:32;;;;;;;16.88;4.80;;;22.30;98.80;;;;;;5054816;28;20040;-68
2022/06/12 10:36:02;;;;;;;16.52;4.70;;;22.90;98.50;;;;;;5054909;28;20033;-69
2022/06/12 10:38:34;;;;;;;19.48;5.07;;;22.80;97.60;;;;;;5052221;28;20470;-67
2022/06/12 10:41:05;;;;;;;14.32;3.58;;;23.00;98.20;;;;;;5052766;28;20523;-67
2022/06/12 10:44:00;;;;;;;12.40;3.53;;;22.30;97.70;;;;;;5054287;28;20405;-67
2022/06/12 10:46:31;;;;;;;13.00;4.05;;;22.80;98.20;;;;;;5047612;28;20377;-67
2022/06/12 10:49:04;;;;;;;13.32;3.40;;;21.70;99.10;;;;;;5054404;28;20028;-69
2022/06/12 10:51:38;;;;;;;16.30;4.00;;;22.00;99.10;;;;;;5054129;28;20079;-68
2022/06/12 10:54:22;;;;;;;17.20;4.03;;;22.70;98.90;;;;;;5054296;28;20025;-68
2022/06/12 10:56:57;;;;;;;16.65;4.00;;;22.70;99.10;;;;;;5051093;28;20037;-70
2022/06/12 10:59:25;;;;;;;14.13;3.78;;;22.40;99.00;;;;;;5055170;28;20068;-72
2022/06/12 11:01:57;;;;;;;18.83;4.32;;;21.90;99.30;;;;;;5054869;28;20028;-69
2022/06/12 11:04:39;;;;;;;14.60;3.72;;;22.00;98.90;;;;;;5053927;28;20029;-68
2022/06/12 11:07:26;;;;;;;15.40;3.75;;;21.90;98.70;;;;;;5044519;28;20036;-67
2022/06/12 11:09:58;;;;;;;18.70;4.38;;;22.10;99.50;;;;;;5055013;28;20449;-68
2022/06/12 11:12:36;;;;;;;13.80;3.25;;;22.20;97.00;;;;;;5055149;28;20029;-67
2022/06/12 11:15:17;;;;;;;9.07;3.55;;;22.30;97.50;;;;;;5052050;28;20021;-67
2022/06/12 11:18:02;;;;;;;18.55;3.88;;;22.50;97.70;;;;;;5054879;28;20072;-68
2022/06/12 11:20:45;;;;;;;15.13;3.47;;;22.30;98.10;;;;;;5054680;28;20024;-68
2022/06/12 11:23:38;;;;;;;11.55;3.53;;;22.10;96.70;;;;;;5053587;28;20024;-68
2022/06/12 11:26:04;;;;;;;;;;;21.80;96.60;;;;;;5047338;28;20040;-67
2022/06/12 11:28:41;;;;;;;16.13;3.00;;;21.70;97.50;;;;;;5054344;28;19909;-68
2022/06/12 11:31:33;;;;;;;12.48;3.53;;;21.70;96.80;;;;;;5054606;28;20068;-67
2022/06/12 11:34:25;;;;;;;10.20;2.92;;;21.40;96.70;;;;;;5054567;28;20469;-68
2022/06/12 11:37:08;;;;;;;11.43;3.00;;;21.60;97.50;;;;;;5031087;28;20045;-67
2022/06/12 11:39:37;;;;;;;11.13;3.20;;;22.20;97.50;;;;;;5061278;28;20028;-68
2022/06/12 11:42:20;;;;;;;15.50;3.42;;;22.10;95.90;;;;;;5055005;28;20502;-67
2022/06/12 11:45:26;;;;;;;13.57;3.15;;;22.10;96.40;;;;;;5046426;28;20033;-67
2022/06/12 11:48:08;;;;;;;12.35;2.88;;;22.80;95.60;;;;;;5053771;28;20045;-69
2022/06/12 11:50:40;;;;;;;8.65;2.65;;;22.70;95.60;;;;;;5053689;28;20032;-67
2022/06/12 11:53:14;;;;;;;8.15;2.58;;;23.20;95.40;;;;;;5054606;28;20048;-67
2022/06/12 11:55:57;;;;;;;15.00;3.13;;;22.80;96.30;;;;;;5054220;28;20032;-67
2022/06/12 11:58:40;;;;;;;12.10;2.80;;;23.00;96.80;;;;;;5054180;28;20436;-67
2022/06/12 12:01:35;;;;;;;17.92;3.40;;;22.70;96.40;;;;;;5053641;28;20072;-67
2022/06/12 12:04:29;;;;;;;12.43;2.63;;;22.30;95.20;;;;;;5054068;28;20381;-68
2022/06/12 12:07:17;;;;;;;9.40;3.10;;;22.80;95.10;;;;;;5040936;28;20024;-67
2022/06/12 12:09:55;;;;;;;9.48;3.05;;;23.10;93.90;;;;;;5053782;28;20029;-67
2022/06/12 12:12:30;;;;;;;13.02;3.00;;;23.20;94.00;;;;;;5053719;28;20041;-68
2022/06/12 12:15:00;;;;;;;14.55;3.00;;;23.30;94.40;;;;;;5054029;28;20060;-67
2022/06/12 12:17:31;;;;;;;12.23;2.58;;;23.10;95.20;;;;;;5053780;28;20029;-67
2022/06/12 12:20:12;;;;;;;12.00;2.72;;;22.90;95.40;;;;;;5053785;28;20029;-67
2022/06/12 12:22:54;;;;;;;8.75;2.80;;;22.80;95.30;;;;;;5052673;28;20469;-68
2022/06/12 12:25:34;;;;;;;9.40;2.88;;;23.20;95.00;;;;;;5053856;28;20036;-67
2022/06/12 12:28:14;;;;;;;9.18;2.50;;;22.90;96.10;;;;;;5053632;28;20462;-66
2022/06/12 12:30:42;;;;;;;14.23;3.17;;;23.30;96.10;;;;;;5053497;28;20032;-68
2022/06/12 12:33:17;;;;;;;9.57;2.88;;;23.60;96.00;;;;;;5052997;28;20566;-67
2022/06/12 12:41:39;;;;;;;14.60;3.17;;;23.40;95.90;;;;;;5044153;28;20033;-67
2022/06/12 12:44:05;;;;;;;9.33;2.87;;;23.30;96.00;;;;;;5054039;28;20087;-68
2022/06/12 12:46:49;;;;;;;14.50;2.83;;;22.90;96.50;;;;;;5053621;28;20763;-68
2022/06/12 12:49:30;;;;;;;12.27;2.55;;;22.80;96.50;;;;;;5040761;28;20099;-68
2022/06/12 12:52:12;;;;;;;9.73;3.28;;;23.30;96.40;;;;;;5053229;28;20489;-67
2022/06/12 12:54:48;;;;;;;11.00;2.47;;;24.30;95.60;;;;;;5053396;28;20079;-67
2022/06/12 12:57:17;;;;;;;12.98;2.78;;;24.10;94.50;;;;;;5053113;28;20039;-67
2022/06/12 12:59:44;;;;;;;9.05;2.97;;;23.60;95.40;;;;;;5053296;28;20044;-68
2022/06/12 13:02:22;;;;;;;9.10;2.88;;;23.90;94.50;;;;;;5053259;28;20544;-69
2022/06/12 13:04:50;;;;;;;11.32;2.95;;;24.50;95.50;;;;;;5053294;28;20029;-69
2022/06/12 13:07:43;;;;;;;14.10;3.33;;;24.60;94.70;;;;;;5053250;28;20029;-69
2022/06/12 13:10:27;;;;;;;7.00;2.50;;;24.40;94.30;;;;;;5052553;28;20082;-68
2022/06/12 13:13:16;;;;;;;9.90;2.85;;;24.10;93.90;;;;;;5052911;28;20099;-68
2022/06/12 13:15:48;;;;;;;12.02;3.13;;;24.20;94.10;;;;;;5053322;28;20048;-69
2022/06/12 13:18:52;;;;;;;9.15;2.80;;;23.80;95.20;;;;;;5052869;28;20104;-69
2022/06/12 13:21:21;;;;;;;13.35;2.80;;;24.10;94.00;;;;;;5052952;28;20503;-68
2022/06/12 13:24:02;;;;;;;9.10;2.55;;;24.10;94.00;;;;;;5052894;28;20048;-68
2022/06/12 13:26:32;;;;;;;8.65;2.40;;;24.20;94.10;;;;;;5052887;28;20029;-68
2022/06/12 13:29:00;;;;;;;9.70;3.33;;;24.40;94.00;;;;;;5052868;28;20112;-67